Time;durP1;ratioP1;P1;durP2;ratioP2;P2;SDS_P1;SDS_P2;PMS_P1;PMS_P2;Temp;Humidity;BMP_temperature;BMP_pressure;BME280_temperature;BME280_humidity;BME280_pressure;Samples;Min_cycle;Max_cycle;Signal;HPM_P1;HPM_P2
2023/04/06 00:01:02;;;;;;;0.77;0.73;;;1.80;73.60;;;;;;5000271;28;20030;-77
2023/04/06 00:03:28;;;;;;;2.53;1.30;;;1.70;73.80;;;;;;4998094;28;20113;-77
2023/04/06 00:05:54;;;;;;;1.20;1.02;;;1.70;74.10;;;;;;5016401;28;20086;-77
2023/04/06 00:08:21;;;;;;;2.17;1.20;;;1.70;74.20;;;;;;5019373;28;20033;-77
2023/04/06 00:10:47;;;;;;;2.75;1.52;;;1.70;74.30;;;;;;5018489;28;20042;-76
2023/04/06 00:13:12;;;;;;;1.10;1.00;;;1.60;74.20;;;;;;5019248;28;20025;-77
2023/04/06 00:15:38;;;;;;;2.10;1.15;;;1.60;74.30;;;;;;5013751;28;20077;-76
2023/04/06 00:18:04;;;;;;;2.72;1.40;;;1.50;74.20;;;;;;4998318;28;20041;-77
2023/04/06 00:20:30;;;;;;;1.52;1.23;;;1.50;74.20;;;;;;4999694;28;20437;-76
2023/04/06 00:22:55;;;;;;;1.98;1.40;;;1.50;74.40;;;;;;5000628;28;20034;-77
2023/04/06 00:25:21;;;;;;;1.70;1.30;;;1.50;74.50;;;;;;5009236;28;20026;-76
2023/04/06 00:27:47;;;;;;;1.20;1.10;;;1.50;74.40;;;;;;5015148;28;20034;-77
2023/04/06 00:30:12;;;;;;;1.45;1.33;;;1.50;74.30;;;;;;5012522;28;20109;-77
2023/04/06 00:32:38;;;;;;;1.83;1.10;;;1.40;74.30;;;;;;5019935;28;20108;-76
2023/04/06 00:35:04;;;;;;;1.30;1.20;;;1.40;74.50;;;;;;5015322;28;20073;-75
2023/04/06 00:37:30;;;;;;;1.80;1.27;;;1.40;74.60;;;;;;4994185;28;20080;-76
2023/04/06 00:39:56;;;;;;;1.33;1.00;;;1.40;74.50;;;;;;4995598;28;20483;-75
2023/04/06 00:42:25;;;;;;;3.15;1.25;;;1.40;74.50;;;;;;4995489;28;20168;-76
2023/04/06 00:44:59;;;;;;;1.13;0.93;;;1.30;74.70;;;;;;4994730;28;20050;-77
2023/04/06 00:47:25;;;;;;;0.90;0.80;;;1.30;74.80;;;;;;5014878;28;20111;-79
2023/04/06 00:49:52;;;;;;;2.15;1.17;;;1.30;74.80;;;;;;5016824;28;20026;-77
2023/04/06 00:52:18;;;;;;;1.85;1.35;;;1.30;74.80;;;;;;5015325;28;20030;-76
2023/04/06 00:54:44;;;;;;;1.80;1.10;;;1.20;74.90;;;;;;5019095;28;20021;-74
2023/04/06 00:57:11;;;;;;;1.23;1.10;;;1.20;75.10;;;;;;5028192;28;20030;-74
2023/04/06 00:59:37;;;;;;;2.22;1.20;;;1.20;75.40;;;;;;5008487;28;20022;-76
2023/04/06 01:02:03;;;;;;;1.88;1.15;;;1.10;75.70;;;;;;4998071;28;20391;-77
2023/04/06 01:04:29;;;;;;;1.42;1.10;;;1.10;76.10;;;;;;4994769;28;20352;-77
2023/04/06 01:06:55;;;;;;;0.82;0.80;;;1.10;76.40;;;;;;5008688;28;20475;-79
2023/04/06 01:09:21;;;;;;;1.23;0.73;;;1.10;76.60;;;;;;5016888;28;20026;-78
2023/04/06 01:11:47;;;;;;;1.50;1.35;;;1.00;76.90;;;;;;5019206;28;20030;-76
2023/04/06 01:14:13;;;;;;;1.52;1.15;;;1.00;77.10;;;;;;5016295;28;20475;-77
2023/04/06 01:16:39;;;;;;;1.55;1.17;;;1.00;77.40;;;;;;5000836;28;20562;-76
2023/04/06 01:19:11;;;;;;;0.85;0.80;;;1.00;77.60;;;;;;5017593;28;20471;-76
2023/04/06 01:21:38;;;;;;;2.95;1.30;;;1.00;78.50;;;;;;5018351;28;20049;-77
2023/04/06 01:24:04;;;;;;;2.35;1.33;;;1.00;78.30;;;;;;5019020;28;20034;-77
2023/04/06 01:26:31;;;;;;;1.33;1.08;;;0.90;78.60;;;;;;5008148;28;20057;-77
2023/04/06 01:28:57;;;;;;;1.80;1.20;;;1.00;78.80;;;;;;5016970;28;20065;-76
2023/04/06 01:31:23;;;;;;;2.42;1.45;;;0.90;79.00;;;;;;4998942;28;20113;-77
2023/04/06 01:33:49;;;;;;;1.60;1.23;;;1.00;79.20;;;;;;5002352;28;20026;-77
2023/04/06 01:36:15;;;;;;;3.33;1.52;;;0.90;79.20;;;;;;5007058;28;20038;-75
2023/04/06 01:38:41;;;;;;;3.47;1.70;;;0.90;79.20;;;;;;5003356;28;20022;-75
2023/04/06 01:41:07;;;;;;;1.83;1.48;;;0.90;79.10;;;;;;5000865;28;20042;-76
2023/04/06 01:43:33;;;;;;;2.25;1.42;;;0.90;79.00;;;;;;5004970;28;20096;-76
2023/04/06 01:45:59;;;;;;;3.35;1.58;;;1.00;78.90;;;;;;5005354;28;20026;-75
2023/04/06 01:48:26;;;;;;;2.25;1.83;;;0.90;78.80;;;;;;5005742;28;20022;-76
2023/04/06 01:50:52;;;;;;;2.92;2.13;;;0.90;78.50;;;;;;4999825;28;20030;-76
2023/04/06 01:53:18;;;;;;;2.08;1.33;;;0.90;78.50;;;;;;4998765;28;20450;-76
2023/04/06 01:55:44;;;;;;;2.45;1.67;;;0.90;78.50;;;;;;4997134;28;20023;-77
2023/04/06 01:58:10;;;;;;;3.17;1.80;;;0.90;78.50;;;;;;5011104;28;20022;-76
2023/04/06 02:00:35;;;;;;;3.53;1.63;;;0.90;78.60;;;;;;5013160;28;20041;-75
2023/04/06 02:03:01;;;;;;;2.50;1.58;;;0.90;78.40;;;;;;5015885;28;20029;-78
2023/04/06 02:05:27;;;;;;;2.83;1.70;;;0.90;78.30;;;;;;5014615;28;20228;-78
2023/04/06 02:07:53;;;;;;;1.65;1.30;;;0.80;78.30;;;;;;5020042;28;20136;-79
2023/04/06 02:10:19;;;;;;;2.60;1.88;;;0.80;78.40;;;;;;5019039;28;20070;-76
2023/04/06 02:12:45;;;;;;;1.88;1.40;;;0.80;78.40;;;;;;5033020;28;20037;-74
2023/04/06 02:15:13;;;;;;;2.42;1.30;;;0.70;78.60;;;;;;5035619;28;20018;-72
2023/04/06 02:17:39;;;;;;;1.25;1.15;;;0.70;79.10;;;;;;5035995;28;20030;-73
2023/04/06 02:20:05;;;;;;;1.80;1.55;;;0.70;79.10;;;;;;5036500;28;20070;-73
2023/04/06 02:22:31;;;;;;;2.47;1.75;;;0.70;79.20;;;;;;5033962;28;20029;-75
2023/04/06 02:24:57;;;;;;;2.80;1.73;;;0.70;79.40;;;;;;5032310;28;20029;-75
2023/04/06 02:27:22;;;;;;;2.05;1.48;;;0.70;79.40;;;;;;5030384;28;20117;-77
2023/04/06 02:29:48;;;;;;;2.45;1.50;;;0.60;79.50;;;;;;5011671;28;20420;-76
2023/04/06 02:32:16;;;;;;;2.72;1.38;;;0.70;79.80;;;;;;5030446;28;20045;-76
2023/04/06 02:34:45;;;;;;;2.53;1.50;;;0.60;79.90;;;;;;5029286;28;20095;-79
2023/04/06 02:37:20;;;;;;;2.85;1.50;;;0.70;80.10;;;;;;5032462;28;20026;-77
2023/04/06 02:39:46;;;;;;;2.17;1.48;;;0.70;80.10;;;;;;5030356;28;20030;-76
2023/04/06 02:42:14;;;;;;;1.80;1.40;;;0.70;80.10;;;;;;5025750;28;20026;-76
2023/04/06 02:44:40;;;;;;;1.75;1.30;;;0.60;80.10;;;;;;5017876;28;20029;-76
2023/04/06 02:47:06;;;;;;;1.65;1.52;;;0.60;80.30;;;;;;5012822;28;20054;-77
2023/04/06 02:49:32;;;;;;;1.60;1.50;;;0.60;80.40;;;;;;5006545;28;20030;-77
2023/04/06 02:51:57;;;;;;;1.85;1.45;;;0.60;80.50;;;;;;5001490;28;20415;-77
2023/04/06 02:54:26;;;;;;;2.50;1.60;;;0.60;80.70;;;;;;5005384;28;20044;-74
2023/04/06 02:56:52;;;;;;;1.85;1.30;;;0.60;80.80;;;;;;5005087;28;20054;-77
2023/04/06 02:59:20;;;;;;;1.77;1.45;;;0.60;80.90;;;;;;5005918;28;20041;-76
2023/04/06 03:01:46;;;;;;;2.08;1.15;;;0.50;80.90;;;;;;5001025;28;20094;-75
2023/04/06 03:04:14;;;;;;;1.20;1.00;;;0.50;81.10;;;;;;5012335;28;20045;-78
2023/04/06 03:06:40;;;;;;;2.03;1.25;;;0.50;81.30;;;;;;5018599;28;20033;-77
2023/04/06 03:09:07;;;;;;;3.10;2.00;;;0.50;81.60;;;;;;5018913;28;20454;-78
2023/04/06 03:11:32;;;;;;;2.63;1.42;;;0.40;81.60;;;;;;5019667;28;20098;-76
2023/04/06 03:13:59;;;;;;;3.33;2.00;;;0.40;81.70;;;;;;5015909;28;20076;-77
2023/04/06 03:16:24;;;;;;;2.88;1.52;;;0.30;81.90;;;;;;5015024;28;20026;-77
2023/04/06 03:18:50;;;;;;;3.10;1.63;;;0.30;82.20;;;;;;5015999;28;20465;-77
2023/04/06 03:21:16;;;;;;;3.88;1.90;;;0.30;82.40;;;;;;5015231;28;20428;-76
2023/04/06 03:23:42;;;;;;;2.78;1.73;;;0.30;82.60;;;;;;5015295;28;20025;-76
2023/04/06 03:26:08;;;;;;;2.80;1.42;;;0.30;82.70;;;;;;5002798;28;20085;-76
2023/04/06 03:28:34;;;;;;;2.05;1.45;;;0.30;82.70;;;;;;5005768;28;20113;-76
2023/04/06 03:31:00;;;;;;;2.22;1.55;;;0.40;82.90;;;;;;5015002;28;20030;-76
2023/04/06 03:33:28;;;;;;;2.72;1.80;;;0.40;83.00;;;;;;5014084;28;20351;-74
2023/04/06 03:35:54;;;;;;;1.77;1.48;;;0.40;83.00;;;;;;5013279;28;20022;-76
2023/04/06 03:38:20;;;;;;;2.17;1.60;;;0.30;83.10;;;;;;5014565;28;20029;-75
2023/04/06 03:40:46;;;;;;;1.90;1.48;;;0.30;83.30;;;;;;5015059;28;20044;-74
2023/04/06 03:43:11;;;;;;;3.80;1.70;;;0.30;83.60;;;;;;5012114;28;20025;-76
2023/04/06 03:45:37;;;;;;;1.65;1.20;;;0.20;83.70;;;;;;5010843;28;20026;-76
2023/04/06 03:48:03;;;;;;;2.15;1.35;;;0.20;84.10;;;;;;4997714;28;20038;-79
2023/04/06 03:50:29;;;;;;;1.92;1.58;;;0.20;84.50;;;;;;4997978;28;20053;-78
2023/04/06 03:52:55;;;;;;;2.53;1.55;;;0.20;84.80;;;;;;4997807;28;20038;-78
2023/04/06 03:55:21;;;;;;;1.95;1.20;;;0.30;85.10;;;;;;5008489;28;20041;-78
2023/04/06 03:57:46;;;;;;;1.98;1.20;;;0.30;85.10;;;;;;5014537;28;20064;-76
2023/04/06 04:00:12;;;;;;;1.15;0.90;;;0.40;84.70;;;;;;5007415;28;20113;-76
2023/04/06 04:02:39;;;;;;;0.98;0.90;;;0.50;84.50;;;;;;5016362;28;20056;-78
2023/04/06 04:05:05;;;;;;;1.85;1.15;;;0.50;84.40;;;;;;5004609;28;20030;-77
2023/04/06 04:07:31;;;;;;;1.50;1.38;;;0.60;84.30;;;;;;5003025;28;20057;-78
2023/04/06 04:09:56;;;;;;;1.58;1.27;;;0.60;84.20;;;;;;5014455;28;20521;-77
2023/04/06 04:12:22;;;;;;;2.30;1.80;;;0.70;84.10;;;;;;5015254;28;20188;-77
2023/04/06 04:14:48;;;;;;;1.88;1.63;;;0.60;83.90;;;;;;5013344;28;20022;-78
2023/04/06 04:17:14;;;;;;;1.73;1.60;;;0.60;83.70;;;;;;4996105;28;20023;-77
2023/04/06 04:19:40;;;;;;;2.35;1.73;;;0.60;83.90;;;;;;4995488;28;20127;-77
2023/04/06 04:22:06;;;;;;;3.60;1.80;;;0.60;83.90;;;;;;4994590;28;20042;-78
2023/04/06 04:24:32;;;;;;;2.00;1.48;;;0.50;83.80;;;;;;4997401;28;20023;-78
2023/04/06 04:26:58;;;;;;;2.33;1.77;;;0.50;84.10;;;;;;5019108;28;20387;-78
2023/04/06 04:29:24;;;;;;;1.90;1.63;;;0.50;84.20;;;;;;5017085;28;20034;-77
2023/04/06 04:31:50;;;;;;;2.10;1.65;;;0.50;84.20;;;;;;5016859;28;20041;-76
2023/04/06 04:34:16;;;;;;;1.95;1.60;;;0.50;84.30;;;;;;5010666;28;20429;-78
2023/04/06 04:36:42;;;;;;;2.88;1.73;;;0.50;84.30;;;;;;4997307;28;20027;-76
2023/04/06 04:39:08;;;;;;;2.78;2.05;;;0.50;84.30;;;;;;4994886;28;20034;-77
2023/04/06 04:41:34;;;;;;;2.28;1.90;;;0.50;84.40;;;;;;4995182;28;20050;-78
2023/04/06 04:43:59;;;;;;;3.05;1.92;;;0.40;84.60;;;;;;4994846;28;20038;-76
2023/04/06 04:46:25;;;;;;;2.28;1.60;;;0.40;84.80;;;;;;4998317;28;20034;-77
2023/04/06 04:48:51;;;;;;;2.00;1.58;;;0.30;84.90;;;;;;4999371;28;20030;-78
2023/04/06 04:51:16;;;;;;;1.38;1.27;;;0.30;85.30;;;;;;5000608;28;20098;-76
2023/04/06 04:53:42;;;;;;;2.85;1.10;;;0.40;85.70;;;;;;5013888;28;20034;-74
2023/04/06 04:56:08;;;;;;;1.52;1.30;;;0.40;85.70;;;;;;5012597;28;20027;-77
2023/04/06 04:58:33;;;;;;;1.50;1.23;;;0.40;85.70;;;;;;5018056;28;20056;-77
2023/04/06 05:00:59;;;;;;;2.72;1.50;;;0.40;85.60;;;;;;5021807;28;20030;-79
2023/04/06 05:03:26;;;;;;;1.85;1.48;;;0.40;85.50;;;;;;5033184;28;20022;-75
2023/04/06 05:05:52;;;;;;;1.75;1.38;;;0.40;85.50;;;;;;5027034;28;20420;-75
2023/04/06 05:08:18;;;;;;;2.22;1.40;;;0.40;85.50;;;;;;5031671;28;20049;-77
2023/04/06 05:10:44;;;;;;;1.55;1.42;;;0.40;85.50;;;;;;5026018;28;20025;-75
2023/04/06 05:13:10;;;;;;;2.28;1.50;;;0.40;85.40;;;;;;5026871;28;20034;-76
2023/04/06 05:15:40;;;;;;;2.38;1.30;;;0.50;85.40;;;;;;5018384;28;20040;-77
2023/04/06 05:18:06;;;;;;;1.85;1.35;;;0.50;85.30;;;;;;5007187;28;20464;-77
2023/04/06 05:20:31;;;;;;;2.75;1.70;;;0.50;85.10;;;;;;5000000;28;20335;-77
2023/04/06 05:22:57;;;;;;;1.27;1.13;;;0.50;84.90;;;;;;4996816;28;20056;-75
2023/04/06 05:25:23;;;;;;;1.48;1.38;;;0.60;85.10;;;;;;4996180;28;20446;-76
2023/04/06 05:27:48;;;;;;;2.17;1.33;;;0.70;85.00;;;;;;5005694;28;20077;-76
2023/04/06 05:30:15;;;;;;;2.25;1.00;;;0.80;84.80;;;;;;5031509;28;20022;-73
2023/04/06 05:32:41;;;;;;;1.52;1.08;;;0.90;84.90;;;;;;5029705;28;20049;-72
2023/04/06 05:35:07;;;;;;;1.45;1.20;;;1.10;84.50;;;;;;5021407;28;20038;-74
2023/04/06 05:37:32;;;;;;;1.30;1.17;;;1.10;83.80;;;;;;5015871;28;20142;-75
2023/04/06 05:39:58;;;;;;;2.05;1.42;;;1.30;83.40;;;;;;5033377;28;20018;-74
2023/04/06 05:42:24;;;;;;;1.73;1.08;;;1.40;82.90;;;;;;5034561;28;20248;-74
2023/04/06 05:44:49;;;;;;;1.58;1.25;;;1.50;82.70;;;;;;5033959;28;20022;-73
2023/04/06 05:47:15;;;;;;;1.80;1.42;;;1.60;82.30;;;;;;5033197;28;20077;-74
2023/04/06 05:49:44;;;;;;;2.03;1.50;;;1.70;81.60;;;;;;5033429;28;20110;-74
2023/04/06 05:52:10;;;;;;;1.92;1.23;;;1.70;81.30;;;;;;5030198;28;20037;-74
2023/04/06 05:54:36;;;;;;;2.67;1.52;;;1.80;81.00;;;;;;5018171;28;20034;-74
2023/04/06 05:57:03;;;;;;;1.17;1.08;;;1.90;80.90;;;;;;5016518;28;20436;-76
2023/04/06 05:59:32;;;;;;;1.38;1.27;;;1.90;80.70;;;;;;5013371;28;20050;-74
2023/04/06 06:01:57;;;;;;;2.13;1.17;;;2.10;80.50;;;;;;5018822;28;20014;-73
2023/04/06 06:04:23;;;;;;;1.35;1.25;;;2.20;80.10;;;;;;5010750;28;20033;-75
2023/04/06 06:06:49;;;;;;;3.20;1.52;;;2.30;79.40;;;;;;5001820;28;20040;-75
2023/04/06 06:09:15;;;;;;;3.75;1.80;;;2.30;78.70;;;;;;5013002;28;20152;-75
2023/04/06 06:11:41;;;;;;;1.60;1.40;;;2.30;78.70;;;;;;5003610;28;20088;-75
2023/04/06 06:14:07;;;;;;;2.22;1.45;;;2.40;78.60;;;;;;5007210;28;20022;-75
2023/04/06 06:16:33;;;;;;;3.60;1.38;;;2.40;78.30;;;;;;5014251;28;20047;-75
2023/04/06 06:18:58;;;;;;;2.03;1.33;;;2.50;78.10;;;;;;5014016;28;20034;-75
2023/04/06 06:21:24;;;;;;;2.03;1.60;;;2.50;77.70;;;;;;5013934;28;20030;-74
2023/04/06 06:23:50;;;;;;;3.50;1.92;;;2.60;77.70;;;;;;5008813;28;20023;-75
2023/04/06 06:26:16;;;;;;;2.20;1.40;;;2.70;77.30;;;;;;5011981;28;20036;-74
2023/04/06 06:28:42;;;;;;;3.38;2.25;;;2.80;77.20;;;;;;5015660;28;20115;-76
2023/04/06 06:31:08;;;;;;;2.30;1.30;;;2.90;77.10;;;;;;5014834;28;20022;-76
2023/04/06 06:33:33;;;;;;;2.13;1.27;;;3.00;77.50;;;;;;5013654;28;20116;-75
2023/04/06 06:35:59;;;;;;;2.40;1.00;;;3.00;76.60;;;;;;5006135;28;20029;-75
2023/04/06 06:38:25;;;;;;;1.65;1.25;;;3.10;76.30;;;;;;5004526;28;20503;-76
2023/04/06 06:40:51;;;;;;;2.10;1.00;;;3.20;76.00;;;;;;4994236;28;20018;-75
2023/04/06 06:43:16;;;;;;;1.35;1.17;;;3.30;75.70;;;;;;4994100;28;20027;-76
2023/04/06 06:45:42;;;;;;;0.80;0.80;;;3.40;75.30;;;;;;4993287;28;20035;-76
2023/04/06 06:48:08;;;;;;;2.05;1.27;;;3.50;74.90;;;;;;4993686;28;20041;-76
2023/04/06 06:50:34;;;;;;;1.67;1.20;;;3.60;74.60;;;;;;4993934;28;20041;-76
2023/04/06 06:52:59;;;;;;;1.30;1.05;;;3.70;74.40;;;;;;4996709;28;20034;-76
2023/04/06 06:55:26;;;;;;;1.75;1.35;;;3.90;73.80;;;;;;5002339;28;20027;-75
2023/04/06 06:57:53;;;;;;;1.95;1.20;;;4.00;73.30;;;;;;5007906;28;20112;-75
2023/04/06 07:00:22;;;;;;;1.88;1.00;;;4.10;72.60;;;;;;5008582;28;20026;-75
2023/04/06 07:02:48;;;;;;;2.17;1.10;;;4.30;72.40;;;;;;5013733;28;20113;-74
2023/04/06 07:05:15;;;;;;;1.73;1.15;;;4.40;72.00;;;;;;5009616;28;20475;-75
2023/04/06 07:07:41;;;;;;;1.65;1.35;;;4.50;71.70;;;;;;5009713;28;20022;-75
2023/04/06 07:10:07;;;;;;;1.85;1.30;;;4.70;71.40;;;;;;5005983;28;20578;-75
2023/04/06 07:12:33;;;;;;;1.63;1.42;;;4.80;71.10;;;;;;5012594;28;20025;-75
2023/04/06 07:14:59;;;;;;;1.63;1.48;;;4.90;70.50;;;;;;5012505;28;20044;-75
2023/04/06 07:17:25;;;;;;;3.38;2.03;;;5.10;70.00;;;;;;5013032;28;20022;-76
2023/04/06 07:19:50;;;;;;;3.33;2.35;;;5.40;69.00;;;;;;5013103;28;20505;-75
2023/04/06 07:22:16;;;;;;;2.97;1.75;;;5.70;67.70;;;;;;5016481;28;20037;-76
2023/04/06 07:24:42;;;;;;;3.25;1.88;;;6.10;66.50;;;;;;5012737;28;20018;-76
2023/04/06 07:27:07;;;;;;;4.95;1.92;;;6.40;65.90;;;;;;5012921;28;20021;-76
2023/04/06 07:29:33;;;;;;;3.72;1.98;;;6.70;63.60;;;;;;5011148;28;20022;-74
2023/04/06 07:31:59;;;;;;;3.42;2.20;;;6.90;62.10;;;;;;5013135;28;20030;-76
2023/04/06 07:34:27;;;;;;;2.88;1.88;;;7.10;61.60;;;;;;5005801;28;20132;-74
2023/04/06 07:36:54;;;;;;;2.03;1.80;;;7.40;60.80;;;;;;5011543;28;20033;-76
2023/04/06 07:39:20;;;;;;;4.03;1.80;;;7.50;59.70;;;;;;5012724;28;20026;-76
2023/04/06 07:41:45;;;;;;;2.83;2.28;;;7.70;58.80;;;;;;5009928;28;20433;-76
2023/04/06 07:44:11;;;;;;;2.58;1.98;;;7.90;58.00;;;;;;5011726;28;20049;-76
2023/04/06 07:46:37;;;;;;;3.28;1.95;;;8.10;57.50;;;;;;5011898;28;20080;-75
2023/04/06 07:49:03;;;;;;;1.85;1.60;;;8.10;56.70;;;;;;5010740;28;20101;-74
2023/04/06 07:51:30;;;;;;;1.95;1.52;;;8.20;56.60;;;;;;5017243;28;20070;-75
2023/04/06 07:53:56;;;;;;;2.05;1.85;;;8.20;56.10;;;;;;5010513;28;20029;-75
2023/04/06 07:56:23;;;;;;;1.83;1.65;;;8.20;56.00;;;;;;5011298;28;20064;-74
2023/04/06 07:58:49;;;;;;;3.72;1.65;;;8.20;55.80;;;;;;5011572;28;20033;-75
2023/04/06 08:01:14;;;;;;;1.95;1.65;;;8.30;55.40;;;;;;5012423;28;20463;-74
2023/04/06 08:03:40;;;;;;;2.13;1.50;;;8.30;55.30;;;;;;5001597;28;20309;-74
2023/04/06 08:06:06;;;;;;;1.92;1.50;;;8.40;55.10;;;;;;5015433;28;20092;-74
2023/04/06 08:08:32;;;;;;;1.60;1.50;;;8.50;54.70;;;;;;4992434;28;20514;-74
2023/04/06 08:10:57;;;;;;;2.50;2.30;;;8.60;54.30;;;;;;4990854;28;20117;-75
2023/04/06 08:13:23;;;;;;;2.63;1.95;;;8.80;53.80;;;;;;5010445;28;20022;-74
2023/04/06 08:15:49;;;;;;;2.13;1.70;;;9.00;53.60;;;;;;5010741;28;20026;-75
2023/04/06 08:18:15;;;;;;;3.10;2.10;;;9.20;52.90;;;;;;5011836;28;20022;-74
2023/04/06 08:20:40;;;;;;;2.75;1.67;;;9.40;52.50;;;;;;5009772;28;20467;-75
2023/04/06 08:23:06;;;;;;;5.00;2.80;;;9.50;51.90;;;;;;5009871;28;20394;-75
2023/04/06 08:25:35;;;;;;;4.05;2.75;;;9.40;51.70;;;;;;5009647;28;20510;-76
2023/04/06 08:28:01;;;;;;;3.83;2.33;;;9.30;51.90;;;;;;5008721;28;20029;-76
2023/04/06 08:30:26;;;;;;;3.38;2.40;;;9.40;52.20;;;;;;5011738;28;20076;-75
2023/04/06 08:32:52;;;;;;;4.05;2.30;;;9.60;51.30;;;;;;5007655;28;20062;-75
2023/04/06 08:35:18;;;;;;;2.33;2.10;;;9.90;50.70;;;;;;5002938;28;20031;-75
2023/04/06 08:37:44;;;;;;;3.22;2.00;;;10.10;49.50;;;;;;4993729;28;20023;-75
2023/04/06 08:40:10;;;;;;;2.75;1.67;;;10.30;49.00;;;;;;4993113;28;20028;-75
2023/04/06 08:42:43;;;;;;;1.60;1.50;;;10.60;48.60;;;;;;4995195;28;20046;-75
2023/04/06 08:45:09;;;;;;;2.50;1.65;;;10.80;48.00;;;;;;5009194;28;20177;-75
2023/04/06 08:47:36;;;;;;;4.38;1.90;;;11.00;47.30;;;;;;5009912;28;20446;-76
2023/04/06 08:50:07;;;;;;;2.53;1.90;;;11.00;46.40;;;;;;5008939;28;20026;-74
2023/04/06 08:52:33;;;;;;;2.50;1.55;;;11.10;46.10;;;;;;5008441;28;20427;-73
2023/04/06 08:55:00;;;;;;;3.88;2.20;;;11.10;46.10;;;;;;5009962;28;20037;-73
2023/04/06 08:57:26;;;;;;;2.00;1.75;;;11.10;45.40;;;;;;5013901;28;20033;-75
2023/04/06 08:59:54;;;;;;;3.40;1.80;;;11.00;45.50;;;;;;5018233;28;20073;-73
2023/04/06 09:02:21;;;;;;;1.85;1.63;;;11.00;45.40;;;;;;5025938;28;20041;-74
2023/04/06 09:04:49;;;;;;;2.20;2.00;;;11.10;45.10;;;;;;5016759;28;20087;-75
2023/04/06 09:07:18;;;;;;;1.90;1.67;;;11.30;44.80;;;;;;5023687;28;20018;-75
2023/04/06 09:09:47;;;;;;;1.70;1.60;;;11.30;44.30;;;;;;5028258;28;20435;-74
2023/04/06 09:12:30;;;;;;;1.77;1.67;;;11.40;44.10;;;;;;5031550;28;20018;-74
2023/04/06 09:14:57;;;;;;;2.08;1.92;;;11.60;43.80;;;;;;5031160;28;20089;-75
2023/04/06 09:17:24;;;;;;;2.22;2.03;;;11.70;43.40;;;;;;5028211;28;20045;-75
2023/04/06 09:19:51;;;;;;;2.70;1.83;;;11.70;43.10;;;;;;5011220;28;20018;-74
2023/04/06 09:22:17;;;;;;;2.35;2.15;;;11.70;43.30;;;;;;5010884;28;20428;-75
2023/04/06 09:24:45;;;;;;;2.22;2.00;;;11.80;43.10;;;;;;5010930;28;20112;-74
2023/04/06 09:27:11;;;;;;;3.63;2.40;;;11.90;43.00;;;;;;5009663;28;20034;-75
2023/04/06 09:29:36;;;;;;;4.72;3.17;;;11.90;42.90;;;;;;5011037;28;20074;-74
2023/04/06 09:32:05;;;;;;;4.80;3.33;;;11.90;42.40;;;;;;5011120;28;20026;-75
2023/04/06 09:34:32;;;;;;;7.55;4.68;;;11.60;42.80;;;;;;5003957;28;20037;-74
2023/04/06 09:36:58;;;;;;;5.20;3.58;;;11.60;42.40;;;;;;5009222;28;20048;-74
2023/04/06 09:39:25;;;;;;;5.10;3.33;;;11.50;42.90;;;;;;5012315;28;20018;-75
2023/04/06 09:41:52;;;;;;;4.18;3.03;;;11.30;42.70;;;;;;5013064;28;20160;-75
2023/04/06 09:44:18;;;;;;;4.28;3.03;;;11.50;43.30;;;;;;5013834;28;20520;-75
2023/04/06 09:46:45;;;;;;;2.88;2.30;;;11.60;43.10;;;;;;5013760;28;20034;-75
2023/04/06 09:49:12;;;;;;;2.38;2.17;;;11.90;43.40;;;;;;5014210;28;20483;-75
2023/04/06 09:51:47;;;;;;;3.92;2.50;;;12.40;43.00;;;;;;5016204;28;20050;-75
2023/04/06 09:54:18;;;;;;;2.60;1.77;;;12.70;42.00;;;;;;5014967;28;20507;-75
2023/04/06 09:56:55;;;;;;;6.43;3.78;;;12.70;42.10;;;;;;5015361;28;20037;-75
2023/04/06 09:59:36;;;;;;;5.60;4.32;;;12.80;41.50;;;;;;5019057;28;20172;-75
2023/04/06 10:02:05;;;;;;;4.20;3.17;;;12.30;41.30;;;;;;5018800;28;20037;-74
2023/04/06 10:04:43;;;;;;;6.25;3.63;;;11.90;42.30;;;;;;5009597;28;20037;-75
2023/04/06 10:07:11;;;;;;;7.32;5.35;;;12.00;42.70;;;;;;5015193;28;20030;-74
2023/04/06 10:09:38;;;;;;;8.18;5.60;;;12.20;41.50;;;;;;5015749;28;20061;-74
2023/04/06 10:12:07;;;;;;;10.02;5.57;;;12.30;41.30;;;;;;5013868;28;20044;-74
2023/04/06 10:14:36;;;;;;;9.00;5.15;;;12.10;40.80;;;;;;5014141;28;20026;-74
2023/04/06 10:17:03;;;;;;;5.57;3.60;;;11.70;41.50;;;;;;5014748;28;20502;-75
2023/04/06 10:19:49;;;;;;;4.85;3.05;;;11.50;42.20;;;;;;5015188;28;20033;-74
2023/04/06 10:22:24;;;;;;;7.70;5.07;;;11.30;42.30;;;;;;5015365;28;20018;-75
2023/04/06 10:24:50;;;;;;;6.05;4.13;;;11.30;42.40;;;;;;5014389;28;20063;-74
2023/04/06 10:27:15;;;;;;;5.00;4.03;;;11.50;43.00;;;;;;5014590;28;20498;-75
2023/04/06 10:29:48;;;;;;;6.07;3.97;;;12.10;42.40;;;;;;5013277;28;20406;-75
2023/04/06 10:32:14;;;;;;;4.65;3.20;;;12.70;41.50;;;;;;5013085;28;20026;-75
2023/04/06 10:34:40;;;;;;;4.28;3.60;;;13.30;41.00;;;;;;5013053;28;20022;-76
2023/04/06 10:37:16;;;;;;;4.60;2.92;;;13.70;40.20;;;;;;4997778;28;20033;-74
2023/04/06 10:39:55;;;;;;;3.03;2.40;;;14.30;39.60;;;;;;4995002;28;20106;-74
2023/04/06 10:42:25;;;;;;;7.30;3.65;;;14.60;38.80;;;;;;4994728;28;20475;-75
2023/04/06 10:44:51;;;;;;;4.75;3.40;;;14.80;38.10;;;;;;4992483;28;20122;-74
2023/04/06 10:47:18;;;;;;;4.72;3.80;;;15.00;38.20;;;;;;4994925;28;20101;-78
2023/04/06 10:49:44;;;;;;;3.42;2.90;;;15.00;37.30;;;;;;4994876;28;20150;-76
2023/04/06 10:52:11;;;;;;;7.47;3.30;;;14.90;37.30;;;;;;5000931;28;20069;-74
2023/04/06 10:54:44;;;;;;;3.33;2.53;;;14.90;37.50;;;;;;5006675;28;20037;-73
2023/04/06 10:57:10;;;;;;;4.35;2.65;;;14.90;38.00;;;;;;5012570;28;20057;-75
2023/04/06 10:59:36;;;;;;;3.95;3.35;;;15.20;37.70;;;;;;5019594;28;20026;-74
2023/04/06 11:02:01;;;;;;;4.47;3.72;;;15.50;37.30;;;;;;5016146;28;20466;-76
2023/04/06 11:04:27;;;;;;;5.43;2.80;;;15.60;36.70;;;;;;5020751;28;20132;-75
2023/04/06 11:06:54;;;;;;;6.57;4.43;;;15.80;36.80;;;;;;4995751;28;20054;-76
2023/04/06 11:09:25;;;;;;;7.97;4.47;;;16.00;35.70;;;;;;5009872;28;20037;-74
2023/04/06 11:11:51;;;;;;;5.85;4.18;;;15.90;35.40;;;;;;5005842;28;20022;-74
2023/04/06 11:14:16;;;;;;;7.45;4.72;;;15.70;35.50;;;;;;5007846;28;20187;-75
2023/04/06 11:16:45;;;;;;;7.43;5.60;;;15.60;35.60;;;;;;5013167;28;20501;-75
2023/04/06 11:19:12;;;;;;;6.90;4.60;;;15.40;34.70;;;;;;4996781;28;20124;-75
2023/04/06 11:21:43;;;;;;;3.58;3.00;;;15.10;36.10;;;;;;5012892;28;20028;-75
2023/04/06 11:24:19;;;;;;;4.80;3.38;;;15.10;36.70;;;;;;5012030;28;20077;-76
2023/04/06 11:26:55;;;;;;;4.30;3.33;;;15.10;37.00;;;;;;5013272;28;20026;-76
2023/04/06 11:29:22;;;;;;;3.88;3.35;;;15.50;36.70;;;;;;4998836;28;20048;-76
2023/04/06 11:31:51;;;;;;;3.72;2.83;;;15.70;36.40;;;;;;4994138;28;20054;-76
2023/04/06 11:34:22;;;;;;;2.10;1.90;;;15.90;35.90;;;;;;5010276;28;20030;-75
2023/04/06 11:36:54;;;;;;;2.13;1.93;;;16.20;36.00;;;;;;5014033;28;20106;-75
2023/04/06 11:39:23;;;;;;;2.28;1.75;;;16.10;35.40;;;;;;5003096;28;20085;-77
2023/04/06 11:41:54;;;;;;;2.47;2.28;;;15.60;35.70;;;;;;4995385;28;20053;-77
2023/04/06 11:44:34;;;;;;;2.83;2.38;;;15.20;36.10;;;;;;4995193;28;20104;-77
2023/04/06 11:47:04;;;;;;;3.35;3.05;;;14.60;36.70;;;;;;4995247;28;20575;-78
2023/04/06 11:49:31;;;;;;;4.68;3.53;;;14.20;37.20;;;;;;5008388;28;20057;-77
2023/04/06 11:51:59;;;;;;;4.65;4.05;;;13.80;37.70;;;;;;5015794;28;20404;-76
2023/04/06 11:54:34;;;;;;;5.65;4.35;;;13.60;37.70;;;;;;5019112;28;20079;-79
2023/04/06 11:57:01;;;;;;;5.35;4.20;;;13.70;38.10;;;;;;5026878;28;20021;-77
2023/04/06 11:59:27;;;;;;;4.82;3.28;;;14.20;37.90;;;;;;5032562;28;20026;-77
2023/04/06 12:01:53;;;;;;;5.15;3.08;;;14.60;37.80;;;;;;5025759;28;20025;-77
2023/04/06 12:04:20;;;;;;;6.10;3.75;;;15.00;37.10;;;;;;5016060;28;20392;-78
2023/04/06 12:06:45;;;;;;;6.80;4.63;;;15.40;36.50;;;;;;5019201;28;20284;-77
2023/04/06 12:09:11;;;;;;;4.75;3.40;;;15.40;35.50;;;;;;5011207;28;20045;-77
2023/04/06 12:11:37;;;;;;;8.40;5.70;;;15.20;35.70;;;;;;4998743;28;20098;-78
2023/04/06 12:14:04;;;;;;;6.25;4.75;;;14.60;36.30;;;;;;4997493;28;20046;-77
2023/04/06 12:16:31;;;;;;;8.23;5.28;;;13.90;37.90;;;;;;4995148;28;20030;-77
2023/04/06 12:18:57;;;;;;;8.15;4.68;;;13.50;38.60;;;;;;4998852;28;20018;-76
2023/04/06 12:21:22;;;;;;;5.85;4.03;;;13.50;39.20;;;;;;5023228;28;20141;-78
2023/04/06 12:23:48;;;;;;;3.33;2.90;;;13.70;39.40;;;;;;5019832;28;20498;-77
2023/04/06 12:26:14;;;;;;;4.95;3.67;;;14.10;38.80;;;;;;5020004;28;20049;-77
2023/04/06 12:28:40;;;;;;;4.10;3.28;;;14.50;38.10;;;;;;5021994;28;20044;-76
2023/04/06 12:31:06;;;;;;;2.65;2.35;;;15.00;37.80;;;;;;5021379;28;20029;-77
2023/04/06 12:33:31;;;;;;;3.50;2.88;;;15.50;37.00;;;;;;5004968;28;20030;-76
2023/04/06 12:35:57;;;;;;;3.42;2.45;;;15.90;36.40;;;;;;4995939;28;20038;-77
2023/04/06 12:38:23;;;;;;;2.58;2.38;;;16.20;35.60;;;;;;4994042;28;20077;-75
2023/04/06 12:40:48;;;;;;;3.15;2.85;;;16.60;35.10;;;;;;5002917;28;20030;-76
2023/04/06 12:43:14;;;;;;;4.78;3.45;;;16.90;34.50;;;;;;5013068;28;20049;-75
2023/04/06 12:45:40;;;;;;;3.80;2.72;;;17.10;34.20;;;;;;5012916;28;20066;-75
2023/04/06 12:48:06;;;;;;;5.40;4.90;;;17.20;33.70;;;;;;5010891;28;20030;-74
2023/04/06 12:50:32;;;;;;;6.35;4.97;;;17.20;33.00;;;;;;5012965;28;20430;-74